Time;durP1;ratioP1;P1;durP2;ratioP2;P2;SDS_P1;SDS_P2;PMS_P1;PMS_P2;Temp;Humidity;BMP_temperature;BMP_pressure;BME280_temperature;BME280_humidity;BME280_pressure;Samples;Min_cycle;Max_cycle;Signal;HPM_P1;HPM_P2
2022/06/24 00:00:43;;;;;;;11.50;2.85;;;;;;;18.12;70.64;93845.66;5059575;28;20244;-88
2022/06/24 00:03:19;;;;;;;11.95;2.90;;;;;;;18.13;69.70;93847.19;5059516;28;20020;-89
2022/06/24 00:05:49;;;;;;;6.32;3.25;;;;;;;18.14;69.57;93846.06;5058076;28;20017;-88
2022/06/24 00:08:15;;;;;;;10.63;3.47;;;;;;;18.16;69.43;93852.66;5059184;28;20128;-88
2022/06/24 00:10:43;;;;;;;8.57;3.10;;;;;;;18.16;69.30;93847.28;5050349;28;20028;-89
2022/06/24 00:13:08;;;;;;;6.45;1.98;;;;;;;18.15;68.57;93851.09;5045913;28;20263;-88
2022/06/24 00:15:36;;;;;;;6.00;1.85;;;;;;;18.19;68.05;93856.56;5045694;28;20104;-89
2022/06/24 00:18:16;;;;;;;8.25;1.88;;;;;;;18.16;67.44;93860.75;5045530;28;20021;-89
2022/06/24 00:20:50;;;;;;;6.63;1.80;;;;;;;18.14;67.60;93863.03;5045603;28;20048;-89
2022/06/24 00:23:17;;;;;;;5.65;2.38;;;;;;;18.11;67.63;93871.84;5045556;28;20049;-88
2022/06/24 00:25:45;;;;;;;6.60;2.20;;;;;;;18.10;67.90;93875.69;5045729;28;20032;-88
2022/06/24 00:28:11;;;;;;;7.88;2.75;;;;;;;18.08;68.78;93880.66;5045528;28;20212;-88
2022/06/24 00:30:51;;;;;;;11.25;3.30;;;;;;;18.06;69.25;93877.53;5045263;28;20021;-89
2022/06/24 00:33:19;;;;;;;10.70;3.10;;;;;;;18.03;69.93;93883.63;5045315;28;20063;-89
2022/06/24 00:35:48;;;;;;;12.43;4.60;;;;;;;17.97;70.59;93887.78;5045355;28;20017;-89
2022/06/24 00:38:24;;;;;;;10.73;3.45;;;;;;;17.94;70.80;93888.50;5045201;28;20025;-89
2022/06/24 00:40:59;;;;;;;8.52;3.63;;;;;;;17.92;71.69;93885.38;5045370;28;20032;-88
2022/06/24 00:43:29;;;;;;;10.35;4.10;;;;;;;17.91;71.54;93886.50;5045157;28;20021;-89
2022/06/24 00:46:06;;;;;;;9.57;4.70;;;;;;;17.87;71.77;93891.06;5045372;28;20017;-89
2022/06/24 00:48:35;;;;;;;9.35;4.32;;;;;;;17.87;72.28;93885.66;5045372;28;20021;-89
2022/06/24 00:51:01;;;;;;;7.93;4.70;;;;;;;17.87;72.52;93877.56;5045153;28;20060;-89
2022/06/24 00:53:27;;;;;;;13.95;4.80;;;;;;;17.87;72.65;93882.97;5045426;28;20033;-88
2022/06/24 00:55:53;;;;;;;12.57;3.92;;;;;;;17.86;72.29;93881.44;5045102;28;20092;-89
2022/06/24 00:58:19;;;;;;;10.27;4.38;;;;;;;17.82;72.02;93892.88;5044882;28;20037;-89
2022/06/24 01:00:47;;;;;;;11.50;5.05;;;;;;;17.76;71.96;93885.44;5045188;28;20039;-89
2022/06/24 01:03:14;;;;;;;15.05;4.18;;;;;;;17.71;72.09;93885.72;5044850;28;20105;-89
2022/06/24 01:05:40;;;;;;;11.82;3.72;;;;;;;17.70;72.46;93881.50;5044761;28;20098;-89
2022/06/24 01:08:11;;;;;;;10.75;3.92;;;;;;;17.72;72.58;93887.31;5044665;28;20033;-88
2022/06/24 01:10:38;;;;;;;7.32;2.92;;;;;;;17.68;72.41;93898.00;5044538;28;20021;-89
2022/06/24 01:13:08;;;;;;;13.20;3.42;;;;;;;17.65;71.57;93901.44;5044831;28;20882;-89
2022/06/24 01:15:33;;;;;;;10.80;3.05;;;;;;;17.60;71.03;93899.03;5043377;28;20334;-88
2022/06/24 01:17:59;;;;;;;13.98;4.43;;;;;;;17.57;70.54;93902.44;5044480;28;20028;-89
2022/06/24 01:20:24;;;;;;;12.05;3.22;;;;;;;17.52;70.76;93900.78;5043288;28;20043;-88
2022/06/24 01:22:50;;;;;;;6.95;2.95;;;;;;;17.49;70.75;93901.50;5043367;28;20028;-89
2022/06/24 01:25:15;;;;;;;10.10;3.13;;;;;;;17.45;71.17;93896.06;5044442;28;20032;-88
2022/06/24 01:27:41;;;;;;;10.43;3.63;;;;;;;17.48;71.63;93885.69;5044636;28;20025;-89
2022/06/24 01:30:09;;;;;;;7.65;3.28;;;;;;;17.54;71.60;93892.34;5044299;28;20033;-88
2022/06/24 01:32:35;;;;;;;8.48;3.15;;;;;;;17.56;71.86;93892.78;5043980;28;20029;-88
2022/06/24 01:35:01;;;;;;;14.95;3.95;;;;;;;17.59;72.21;93895.56;5044083;28;20064;-89
2022/06/24 01:37:26;;;;;;;8.60;3.75;;;;;;;17.61;72.14;93897.91;5043908;28;20029;-88
2022/06/24 01:39:52;;;;;;;8.60;3.38;;;;;;;17.61;72.29;93893.28;5044077;28;20029;-89
2022/06/24 01:42:17;;;;;;;8.73;3.97;;;;;;;17.61;72.14;93889.81;5044150;28;20036;-87
2022/06/24 01:44:45;;;;;;;5.38;3.17;;;;;;;17.60;72.17;93885.53;5044110;28;20033;-89
2022/06/24 01:47:11;;;;;;;9.13;3.45;;;;;;;17.56;71.94;93885.47;5044096;28;20032;-88
2022/06/24 01:49:36;;;;;;;11.10;3.50;;;;;;;17.51;71.62;93879.59;5044643;28;20021;-89
2022/06/24 01:52:02;;;;;;;12.43;4.22;;;;;;;17.49;71.58;93884.56;5044112;28;20247;-88
2022/06/24 01:54:27;;;;;;;7.07;3.80;;;;;;;17.43;71.95;93876.75;5044368;28;20032;-88
2022/06/24 01:56:54;;;;;;;14.43;4.03;;;;;;;17.41;72.10;93879.03;5044775;28;20025;-89
2022/06/24 01:59:20;;;;;;;7.90;4.15;;;;;;;17.37;71.97;93872.03;5043914;28;20048;-89
2022/06/24 02:01:46;;;;;;;7.68;3.60;;;;;;;17.35;72.54;93856.22;5043927;28;20053;-87
2022/06/24 02:04:12;;;;;;;12.35;3.70;;;;;;;17.35;72.76;93847.34;5043951;28;20041;-87
2022/06/24 02:06:38;;;;;;;15.45;3.90;;;;;;;17.33;72.75;93833.47;5043704;28;20067;-88
2022/06/24 02:09:05;;;;;;;9.60;3.70;;;;;;;17.31;72.63;93847.28;5043795;28;20041;-88
2022/06/24 02:14:15;;;;;;;7.53;3.78;;;;;;;17.21;73.30;93854.00;5043862;28;20068;-88
2022/06/24 02:16:41;;;;;;;11.63;3.47;;;;;;;17.13;72.73;93848.84;5043645;28;20021;-88
2022/06/24 02:19:08;;;;;;;9.45;3.25;;;;;;;17.05;72.16;93853.31;5043584;28;20052;-89
2022/06/24 02:21:34;;;;;;;5.80;3.10;;;;;;;16.91;71.80;93848.41;5043682;28;20032;-88
2022/06/24 02:24:00;;;;;;;10.65;2.78;;;;;;;16.84;71.19;93859.81;5043645;28;20025;-89
2022/06/24 02:26:26;;;;;;;10.45;3.22;;;;;;;16.78;71.25;93861.19;5043272;28;20051;-89
2022/06/24 02:28:52;;;;;;;6.40;2.90;;;;;;;16.73;71.43;93855.28;5043350;28;20055;-88
2022/06/24 02:31:18;;;;;;;13.07;3.72;;;;;;;16.72;72.03;93853.75;5043489;28;20021;-88
2022/06/24 02:33:43;;;;;;;4.15;2.72;;;;;;;16.74;72.34;93867.63;5042909;28;20197;-88
2022/06/24 02:36:09;;;;;;;9.85;3.47;;;;;;;16.73;72.46;93866.06;5042072;28;20029;-90
2022/06/24 02:38:35;;;;;;;6.63;3.22;;;;;;;16.73;72.97;93869.56;5042760;28;20308;-89
2022/06/24 02:41:01;;;;;;;10.38;3.50;;;;;;;16.73;73.21;93871.44;5043181;28;20292;-89
2022/06/24 02:43:28;;;;;;;7.53;3.20;;;;;;;16.74;73.65;93873.00;5042848;28;20025;-88
2022/06/24 02:46:06;;;;;;;6.32;3.42;;;;;;;16.76;73.63;93871.53;5042573;28;20338;-89
2022/06/24 02:48:33;;;;;;;8.00;3.42;;;;;;;16.78;73.90;93865.78;5042467;28;20115;-88
2022/06/24 02:51:00;;;;;;;11.25;3.83;;;;;;;16.80;73.95;93868.91;5043028;28;20025;-88
2022/06/24 02:53:28;;;;;;;6.32;4.03;;;;;;;16.81;73.96;93862.41;5043103;28;20025;-88
2022/06/24 02:55:57;;;;;;;8.65;3.45;;;;;;;16.80;74.32;93868.91;5042943;28;20228;-88
2022/06/24 02:58:23;;;;;;;11.82;3.53;;;;;;;16.80;74.31;93867.00;5042852;28;20052;-89
2022/06/24 03:00:49;;;;;;;15.90;4.20;;;;;;;16.83;74.64;93860.16;5043284;28;20025;-89
2022/06/24 03:03:16;;;;;;;8.07;3.45;;;;;;;16.94;74.32;93863.88;5042904;28;20075;-88
2022/06/24 03:05:43;;;;;;;8.82;3.90;;;;;;;16.98;73.95;93872.03;5041980;28;20075;-89
2022/06/24 03:08:10;;;;;;;8.80;3.53;;;;;;;17.01;73.61;93872.06;5042817;28;20022;-89
2022/06/24 03:10:36;;;;;;;8.68;3.65;;;;;;;16.98;73.88;93864.72;5042889;28;20021;-89
2022/06/24 03:13:02;;;;;;;11.70;4.53;;;;;;;17.01;74.29;93869.38;5042756;28;20185;-89
2022/06/24 03:15:28;;;;;;;8.77;4.85;;;;;;;17.02;74.54;93862.88;5042687;28;20027;-89
2022/06/24 03:17:53;;;;;;;9.98;5.80;;;;;;;17.04;73.91;93871.38;5042783;28;20025;-89
2022/06/24 03:20:19;;;;;;;17.33;5.10;;;;;;;17.03;74.30;93869.81;5042994;28;20113;-89
2022/06/24 03:22:45;;;;;;;9.90;4.68;;;;;;;17.05;74.55;93872.94;5043143;28;20315;-89
2022/06/24 03:25:10;;;;;;;10.40;5.22;;;;;;;17.08;74.75;93870.69;5042776;28;20068;-89
2022/06/24 03:27:37;;;;;;;14.63;4.97;;;;;;;17.15;74.53;93868.13;5041716;28;20024;-89
2022/06/24 03:30:07;;;;;;;20.02;5.65;;;;;;;17.17;73.92;93868.56;5042546;28;20024;-88
2022/06/24 03:32:33;;;;;;;9.55;4.88;;;;;;;17.19;73.93;93874.38;5042958;28;20311;-87
2022/06/24 03:34:59;;;;;;;9.45;5.03;;;;;;;17.18;73.92;93875.50;5042825;28;20076;-88
2022/06/24 03:37:26;;;;;;;10.35;5.47;;;;;;;17.15;74.23;93876.97;5042760;28;20029;-89
2022/06/24 03:39:52;;;;;;;9.63;5.80;;;;;;;17.10;74.63;93890.75;5042547;28;20048;-89
2022/06/24 03:42:18;;;;;;;12.82;5.28;;;;;;;17.06;74.59;93879.13;5042848;28;20092;-88
2022/06/24 03:44:43;;;;;;;10.80;5.32;;;;;;;17.09;74.68;93883.00;5041716;28;20355;-88
2022/06/24 03:47:09;;;;;;;10.50;5.32;;;;;;;17.15;73.89;93881.59;5046418;28;20084;-89
2022/06/24 03:49:34;;;;;;;11.27;5.45;;;;;;;17.21;73.62;93864.00;5046261;28;20312;-89
2022/06/24 03:52:00;;;;;;;7.75;4.95;;;;;;;17.30;74.72;93878.06;5046085;28;20327;-89
2022/06/24 03:54:25;;;;;;;10.90;5.65;;;;;;;17.35;74.23;93885.06;5046181;28;20037;-88
2022/06/24 03:56:51;;;;;;;8.95;4.88;;;;;;;17.38;74.11;93892.44;5046431;28;20220;-89
2022/06/24 03:59:17;;;;;;;11.15;4.93;;;;;;;17.44;74.01;93891.81;5046071;28;20041;-88
2022/06/24 04:01:43;;;;;;;8.57;4.70;;;;;;;17.47;74.02;93876.06;5046253;28;20088;-88
2022/06/24 04:04:09;;;;;;;12.45;5.18;;;;;;;17.52;73.84;93871.16;5046092;28;20044;-88
2022/06/24 04:06:34;;;;;;;8.70;5.00;;;;;;;17.60;73.72;93859.38;5045998;28;20224;-89
2022/06/24 04:09:00;;;;;;;10.60;5.63;;;;;;;17.67;72.91;93864.13;5045972;28;20363;-88
2022/06/24 04:11:25;;;;;;;12.93;7.75;;;;;;;17.69;73.29;93863.75;5045586;28;20193;-89
2022/06/24 04:13:51;;;;;;;8.32;5.85;;;;;;;17.71;73.44;93878.44;5046051;28;20033;-89
2022/06/24 04:16:16;;;;;;;16.15;7.22;;;;;;;17.76;73.76;93878.13;5045657;28;20025;-88
2022/06/24 04:18:42;;;;;;;10.45;7.35;;;;;;;17.79;73.56;93882.06;5045538;28;20048;-88
2022/06/24 04:21:12;;;;;;;21.27;7.57;;;;;;;17.80;73.75;93884.38;5045701;28;20328;-89
2022/06/24 04:23:38;;;;;;;12.43;7.95;;;;;;;17.74;73.64;93888.50;5044534;28;20033;-89
2022/06/24 04:26:04;;;;;;;14.27;8.38;;;;;;;17.76;73.81;93885.44;5045753;28;20029;-89
2022/06/24 04:28:30;;;;;;;12.02;7.68;;;;;;;17.71;74.23;93877.66;5045523;28;20071;-89
2022/06/24 04:30:56;;;;;;;15.40;8.07;;;;;;;17.67;74.07;93874.91;5045591;28;20336;-90
2022/06/24 04:33:21;;;;;;;14.05;9.13;;;;;;;17.72;73.94;93898.84;5045913;28;20029;-88
2022/06/24 04:35:47;;;;;;;15.93;8.82;;;;;;;17.70;74.39;93894.97;5045507;28;20079;-88
2022/06/24 04:38:13;;;;;;;14.93;7.80;;;;;;;17.69;74.81;93904.97;5045494;28;20060;-88
2022/06/24 04:40:39;;;;;;;25.75;9.38;;;;;;;17.73;75.16;93905.06;5045275;28;20026;-89
2022/06/24 04:43:04;;;;;;;12.20;7.38;;;;;;;17.76;74.64;93915.09;5045317;28;20048;-88
2022/06/24 04:45:30;;;;;;;10.90;7.95;;;;;;;17.71;75.04;93918.88;5045343;28;20032;-88
2022/06/24 04:47:56;;;;;;;13.07;6.93;;;;;;;17.65;75.50;93910.28;5045345;28;20029;-88
2022/06/24 04:50:21;;;;;;;19.05;7.88;;;;;;;17.65;75.82;93915.69;5045284;28;20092;-89
2022/06/24 04:52:47;;;;;;;18.95;8.63;;;;;;;17.72;75.71;93915.03;5045404;28;20026;-88
2022/06/24 04:55:12;;;;;;;12.82;9.63;;;;;;;17.80;75.38;93911.34;5045255;28;20331;-88
2022/06/24 04:57:38;;;;;;;17.17;9.38;;;;;;;17.88;75.44;93914.97;5044829;28;20053;-88
2022/06/24 05:00:05;;;;;;;18.08;9.13;;;;;;;18.01;74.75;93910.97;5044685;28;20213;-88
2022/06/24 05:02:30;;;;;;;18.17;7.95;;;;;;;18.07;74.46;93903.34;5044942;28;20071;-88
2022/06/24 05:04:56;;;;;;;19.05;8.65;;;;;;;18.07;75.09;93910.69;5045005;28;20030;-88
2022/06/24 05:07:21;;;;;;;16.63;8.95;;;;;;;18.13;74.82;93901.91;5045045;28;20327;-88
2022/06/24 05:09:47;;;;;;;18.58;8.60;;;;;;;18.18;75.44;93909.72;5044704;28;20312;-87
2022/06/24 05:12:12;;;;;;;16.33;9.40;;;;;;;18.18;74.56;93914.34;5044866;28;20286;-88
2022/06/24 05:14:38;;;;;;;14.90;9.20;;;;;;;18.28;74.23;93913.75;5044581;28;20049;-88
2022/06/24 05:17:04;;;;;;;16.38;9.00;;;;;;;18.32;73.82;93908.38;5044792;28;20029;-87
2022/06/24 05:19:30;;;;;;;16.30;9.27;;;;;;;18.41;73.46;93917.03;5044649;28;20035;-88
2022/06/24 05:21:55;;;;;;;20.45;8.82;;;;;;;18.53;73.54;93922.25;5043840;28;20032;-88
2022/06/24 05:24:22;;;;;;;16.83;9.05;;;;;;;18.64;73.26;93920.50;5044842;28;20026;-87
2022/06/24 05:26:48;;;;;;;18.38;8.63;;;;;;;18.83;73.01;93926.97;5045023;28;20053;-88
2022/06/24 05:29:14;;;;;;;12.40;7.43;;;;;;;18.96;71.90;93932.94;5044694;28;20247;-90
2022/06/24 05:31:39;;;;;;;13.20;8.57;;;;;;;18.99;70.47;93935.69;5045149;28;20025;-88
2022/06/24 05:34:06;;;;;;;18.00;8.95;;;;;;;19.00;71.23;93941.88;5045800;28;20071;-88
2022/06/24 05:36:32;;;;;;;15.20;8.55;;;;;;;19.03;71.08;93949.22;5044797;28;20033;-88
2022/06/24 05:39:01;;;;;;;16.90;8.70;;;;;;;19.04;70.57;93954.28;5044829;28;20034;-88
2022/06/24 05:41:26;;;;;;;18.48;8.27;;;;;;;18.96;71.26;93957.25;5043207;28;20029;-88
2022/06/24 05:43:51;;;;;;;16.05;7.30;;;;;;;18.98;71.26;93953.03;5044500;28;20093;-89
2022/06/24 05:46:17;;;;;;;12.35;6.55;;;;;;;18.94;71.53;93957.59;5046355;28;20033;-88
2022/06/24 05:48:43;;;;;;;13.43;5.80;;;;;;;18.98;71.99;93958.44;5047347;28;20022;-89
2022/06/24 05:51:17;;;;;;;8.10;5.18;;;;;;;18.89;71.67;93952.53;5045953;28;20092;-89
2022/06/24 05:56:29;;;;;;;11.55;5.35;;;;;;;19.08;70.81;93956.25;5045877;28;20043;-90
2022/06/24 05:58:55;;;;;;;11.38;4.78;;;;;;;19.04;69.55;93959.66;5045598;28;20097;-88
2022/06/24 06:01:21;;;;;;;7.47;4.55;;;;;;;18.93;69.62;93961.47;5044583;28;20028;-89
2022/06/24 06:03:49;;;;;;;10.52;5.57;;;;;;;19.08;69.31;93970.53;5043910;28;20026;-89
2022/06/24 06:06:15;;;;;;;9.05;5.10;;;;;;;19.13;69.45;93966.75;5044146;28;20029;-89
2022/06/24 06:08:40;;;;;;;11.82;4.72;;;;;;;18.98;68.85;93963.81;5043367;28;20387;-87
2022/06/24 06:11:16;;;;;;;8.85;4.55;;;;;;;19.01;69.41;93970.41;5042660;28;20070;-88
2022/06/24 06:13:43;;;;;;;8.57;4.88;;;;;;;18.98;70.28;93961.13;5044027;28;20029;-90
2022/06/24 06:16:09;;;;;;;8.05;4.90;;;;;;;18.90;70.82;93969.50;5043995;28;20116;-89
2022/06/24 06:18:35;;;;;;;10.10;5.03;;;;;;;18.97;70.75;93956.88;5042513;28;20033;-88
2022/06/24 06:21:05;;;;;;;7.43;4.97;;;;;;;19.07;71.51;93960.09;5043941;28;20079;-89
2022/06/24 06:23:31;;;;;;;15.80;5.47;;;;;;;19.13;70.45;93956.72;5044126;28;20022;-88
2022/06/24 06:25:57;;;;;;;6.85;5.03;;;;;;;19.17;71.20;93952.16;5043752;28;20093;-88
2022/06/24 06:28:23;;;;;;;9.00;5.30;;;;;;;19.24;70.91;93951.47;5042740;28;20308;-88
2022/06/24 06:30:49;;;;;;;7.35;5.43;;;;;;;19.31;69.27;93935.34;5043571;28;20021;-89
2022/06/24 06:33:14;;;;;;;8.50;4.55;;;;;;;19.27;69.60;93939.91;5043953;28;20021;-87
2022/06/24 06:35:40;;;;;;;9.25;4.32;;;;;;;19.27;68.85;93929.09;5043566;28;20067;-88
2022/06/24 06:38:06;;;;;;;10.63;4.45;;;;;;;19.24;68.86;93936.03;5043314;28;20032;-88
2022/06/24 06:40:35;;;;;;;8.30;5.05;;;;;;;19.39;69.49;93941.63;5043474;28;20029;-89
2022/06/24 06:43:01;;;;;;;12.25;4.35;;;;;;;19.39;68.73;93936.22;5043301;28;20266;-90
2022/06/24 06:45:27;;;;;;;8.00;3.50;;;;;;;19.42;67.55;93927.38;5043321;28;20345;-90
2022/06/24 06:47:52;;;;;;;8.93;3.85;;;;;;;19.41;65.91;93931.22;5043530;28;20028;-89
2022/06/24 06:50:18;;;;;;;17.23;4.07;;;;;;;19.41;66.31;93926.59;5043430;28;20216;-90
2022/06/24 06:52:44;;;;;;;9.20;4.15;;;;;;;19.38;67.05;93911.13;5043391;28;20044;-89
2022/06/24 06:55:09;;;;;;;10.02;5.03;;;;;;;19.59;67.31;93917.91;5042124;28;20047;-89
2022/06/24 06:57:35;;;;;;;6.47;3.92;;;;;;;19.58;66.77;93911.75;5043117;28;20088;-89
2022/06/24 07:00:01;;;;;;;5.68;3.75;;;;;;;19.60;66.28;93919.47;5043080;28;20052;-89
2022/06/24 07:02:26;;;;;;;8.73;3.75;;;;;;;19.65;66.75;93917.22;5043234;28;20243;-89
2022/06/24 07:04:52;;;;;;;8.15;4.25;;;;;;;19.80;66.55;93917.41;5042305;28;20025;-90
2022/06/24 07:07:17;;;;;;;9.45;4.05;;;;;;;19.89;64.38;93909.78;5043274;28;20025;-89
2022/06/24 07:09:43;;;;;;;10.95;5.25;;;;;;;19.97;64.03;93916.06;5042930;28;20033;-89
2022/06/24 07:12:08;;;;;;;7.05;4.63;;;;;;;20.05;65.21;93920.38;5042803;28;20320;-89
2022/06/24 07:14:34;;;;;;;12.02;4.28;;;;;;;20.15;63.92;93924.31;5041844;28;20028;-89
2022/06/24 07:16:59;;;;;;;5.95;3.40;;;;;;;20.20;62.08;93911.25;5043106;28;20022;-89
2022/06/24 07:19:25;;;;;;;6.90;3.55;;;;;;;20.23;62.39;93912.41;5042966;28;20215;-89
2022/06/24 07:21:50;;;;;;;7.05;3.10;;;;;;;20.35;61.56;93914.88;5046711;28;20040;-89
2022/06/24 07:24:16;;;;;;;6.05;4.22;;;;;;;20.43;61.79;93921.91;5047272;28;20017;-89
2022/06/24 07:26:41;;;;;;;7.97;3.97;;;;;;;20.50;61.90;93915.75;5046966;28;20040;-88
2022/06/24 07:29:06;;;;;;;13.80;4.57;;;;;;;20.57;62.09;93915.03;5046792;28;20045;-90
2022/06/24 07:31:32;;;;;;;9.95;4.28;;;;;;;20.68;61.37;93904.31;5046936;28;20025;-90
2022/06/24 07:33:58;;;;;;;9.55;3.85;;;;;;;20.79;60.51;93916.78;5047087;28;20021;-89
2022/06/24 07:36:24;;;;;;;9.43;3.97;;;;;;;20.81;60.04;93916.41;5046997;28;20053;-89
2022/06/24 07:38:50;;;;;;;7.97;3.63;;;;;;;20.89;59.43;93920.72;5046759;28;20212;-90
2022/06/24 07:41:15;;;;;;;6.82;4.05;;;;;;;20.92;59.11;93909.09;5046793;28;20312;-89
2022/06/24 07:43:41;;;;;;;11.77;5.25;;;;;;;20.91;59.56;93910.28;5046721;28;20087;-90
2022/06/24 07:46:08;;;;;;;10.82;4.35;;;;;;;20.93;58.80;93918.81;5046726;28;20093;-90
2022/06/24 07:48:35;;;;;;;8.93;3.70;;;;;;;21.01;58.91;93906.84;5046472;28;20324;-90
2022/06/24 07:51:15;;;;;;;8.50;3.33;;;;;;;21.11;58.57;93904.59;5046775;28;20315;-89
2022/06/24 07:53:43;;;;;;;10.43;4.07;;;;;;;21.22;57.61;93906.19;5046805;28;20021;-89
2022/06/24 07:58:52;;;;;;;7.80;3.25;;;;;;;21.35;56.36;93895.81;5046277;28;20359;-89
2022/06/24 08:01:18;;;;;;;9.75;3.60;;;;;;;21.55;57.29;93887.38;5046487;28;20025;-89
2022/06/24 08:03:44;;;;;;;8.35;4.03;;;;;;;21.62;57.99;93899.03;5046374;28;20018;-90
2022/06/24 08:06:10;;;;;;;15.10;4.20;;;;;;;21.70;58.93;93896.38;5046252;28;20018;-89
2022/06/24 08:08:36;;;;;;;6.60;3.47;;;;;;;21.75;57.08;93901.41;5046259;28;20029;-89
2022/06/24 08:11:01;;;;;;;6.80;2.97;;;;;;;21.78;55.91;93895.22;5046410;28;20093;-89
2022/06/24 08:13:27;;;;;;;8.57;4.30;;;;;;;21.78;55.71;93897.94;5046387;28;20048;-89
2022/06/24 08:15:52;;;;;;;8.38;3.85;;;;;;;21.88;56.58;93902.63;5046237;28;20017;-89
2022/06/24 08:18:19;;;;;;;6.13;3.08;;;;;;;21.90;56.05;93902.22;5046075;28;20331;-89
2022/06/24 08:20:44;;;;;;;7.10;2.88;;;;;;;21.92;56.07;93908.03;5044834;28;20104;-89
2022/06/24 08:23:10;;;;;;;6.90;4.10;;;;;;;21.98;53.84;93899.16;5045944;28;20052;-89
2022/06/24 08:25:36;;;;;;;6.55;2.85;;;;;;;22.10;54.37;93908.06;5045741;28;20009;-89
2022/06/24 08:28:01;;;;;;;5.05;2.53;;;;;;;22.02;55.58;93901.84;5045743;28;20040;-89
2022/06/24 08:30:27;;;;;;;7.07;2.85;;;;;;;21.95;55.20;93893.72;5045770;28;20064;-90
2022/06/24 08:32:52;;;;;;;6.53;3.67;;;;;;;21.97;55.57;93896.81;5045534;28;20047;-89
2022/06/24 08:35:18;;;;;;;5.90;2.90;;;;;;;22.03;54.94;93898.00;5045630;28;20017;-90
2022/06/24 08:37:44;;;;;;;6.70;3.40;;;;;;;22.10;56.44;93897.22;5045659;28;20017;-90
2022/06/24 08:40:11;;;;;;;7.82;3.47;;;;;;;22.14;56.44;93893.34;5044463;28;20021;-89
2022/06/24 08:42:38;;;;;;;4.88;3.08;;;;;;;22.26;54.48;93896.88;5045481;28;20025;-90
2022/06/24 08:45:04;;;;;;;8.73;3.00;;;;;;;22.40;53.80;93899.63;5045592;28;20083;-89
2022/06/24 08:47:29;;;;;;;6.38;3.42;;;;;;;22.51;54.16;93900.41;5045469;28;20224;-90
2022/06/24 08:49:55;;;;;;;6.55;2.38;;;;;;;22.61;52.47;93904.25;5045563;28;20039;-89
2022/06/24 08:52:21;;;;;;;5.63;2.75;;;;;;;22.73;53.27;93914.75;5045550;28;20323;-89
2022/06/24 08:54:48;;;;;;;8.38;2.88;;;;;;;22.80;52.57;93916.69;5045407;28;20197;-91
2022/06/24 08:57:14;;;;;;;6.38;2.55;;;;;;;22.81;52.77;93907.38;5045161;28;20018;-90
2022/06/24 08:59:42;;;;;;;4.40;3.05;;;;;;;22.83;51.93;93907.75;5044991;28;20040;-89
2022/06/24 09:02:12;;;;;;;5.65;2.95;;;;;;;22.86;52.66;93903.47;5045867;28;20029;-89
2022/06/24 09:04:42;;;;;;;6.55;2.72;;;;;;;23.01;53.25;93907.72;5045718;28;20108;-90
2022/06/24 09:07:07;;;;;;;8.20;2.50;;;;;;;23.06;51.58;93912.81;5045105;28;20303;-89
2022/06/24 09:09:33;;;;;;;9.65;3.25;;;;;;;23.01;51.73;93911.25;5044085;28;20020;-89
2022/06/24 09:12:01;;;;;;;9.98;3.40;;;;;;;22.95;51.13;93901.91;5045656;28;20105;-89
2022/06/24 09:14:44;;;;;;;4.35;2.75;;;;;;;22.96;51.93;93906.19;5045290;28;20025;-89
2022/06/24 09:17:11;;;;;;;5.60;2.95;;;;;;;23.01;52.16;93894.94;5044804;28;20060;-90
2022/06/24 09:19:37;;;;;;;19.80;4.32;;;;;;;23.07;50.79;93895.31;5044598;28;20092;-89
2022/06/24 09:22:03;;;;;;;4.05;2.30;;;;;;;23.01;50.28;93896.84;5045268;28;20021;-90
2022/06/24 09:24:45;;;;;;;7.80;2.67;;;;;;;22.89;51.83;93903.47;5077397;28;20059;-90
2022/06/24 09:27:11;;;;;;;6.60;2.45;;;;;;;22.87;50.13;93897.66;5044993;28;20074;-89
2022/06/24 09:29:36;;;;;;;6.80;2.60;;;;;;;22.85;50.83;93897.25;5045133;28;20037;-90
2022/06/24 09:32:05;;;;;;;6.50;2.38;;;;;;;22.98;49.49;93900.38;5045015;28;20017;-89
2022/06/24 09:34:30;;;;;;;5.43;1.90;;;;;;;23.02;51.76;93895.75;5044968;28;20220;-90
2022/06/24 09:36:56;;;;;;;4.88;2.38;;;;;;;23.06;52.52;93901.16;5044743;28;20017;-90
2022/06/24 09:39:22;;;;;;;4.75;2.10;;;;;;;23.10;49.93;93902.72;5044550;28;20021;-89
2022/06/24 09:41:49;;;;;;;4.07;2.17;;;;;;;23.19;51.34;93905.78;5044557;28;20021;-89
2022/06/24 09:44:16;;;;;;;3.75;1.88;;;;;;;23.14;47.98;93906.19;5043890;28;20027;-90
2022/06/24 09:46:43;;;;;;;4.78;1.60;;;;;;;23.23;47.34;93900.34;5044600;28;20021;-89
2022/06/24 09:49:14;;;;;;;6.28;1.88;;;;;;;23.39;49.53;93905.34;5044403;28;20013;-90
2022/06/24 09:51:44;;;;;;;6.75;2.17;;;;;;;23.42;50.25;93907.28;5045784;28;20312;-89
2022/06/24 09:54:17;;;;;;;4.72;1.92;;;;;;;23.46;47.84;93907.25;5046438;28;20037;-89
2022/06/24 09:56:44;;;;;;;3.90;1.80;;;;;;;23.47;45.19;93906.06;5045409;28;20025;-89
2022/06/24 10:02:00;;;;;;;4.07;1.85;;;;;;;23.54;49.44;93897.91;5046108;28;20032;-90
2022/06/24 10:04:27;;;;;;;4.57;1.95;;;;;;;23.66;47.43;93905.63;5046474;28;20051;-89
2022/06/24 10:06:56;;;;;;;7.00;1.75;;;;;;;23.69;48.02;93909.50;5043111;28;20335;-90
2022/06/24 10:09:28;;;;;;;6.50;2.13;;;;;;;23.74;48.96;93912.59;5044514;28;20027;-90
2022/06/24 10:11:57;;;;;;;4.93;1.90;;;;;;;23.87;46.79;93909.44;5044768;28;20346;-89
2022/06/24 10:14:24;;;;;;;2.97;1.60;;;;;;;23.75;47.46;93908.72;5043447;28;20033;-90
2022/06/24 10:16:50;;;;;;;4.15;1.85;;;;;;;23.76;47.47;93909.47;5044325;28;20028;-90
2022/06/24 10:19:18;;;;;;;10.48;1.88;;;;;;;23.88;44.86;93919.19;5044059;28;20267;-90
2022/06/24 10:21:45;;;;;;;5.50;1.60;;;;;;;24.03;43.44;93920.63;5044083;28;20021;-90
2022/06/24 10:24:12;;;;;;;3.92;1.55;;;;;;;24.01;42.98;93915.59;5044143;28;20074;-90
2022/06/24 10:26:44;;;;;;;3.70;1.50;;;;;;;24.02;43.20;93911.69;5042969;28;20025;-90
2022/06/24 10:29:17;;;;;;;6.55;1.48;;;;;;;24.09;43.94;93924.50;5044005;28;20017;-90
2022/06/24 10:31:49;;;;;;;2.55;1.48;;;;;;;24.18;41.81;93918.59;5044095;28;20045;-90
2022/06/24 10:34:27;;;;;;;4.32;1.70;;;;;;;24.25;42.59;93915.84;5044024;28;20032;-90
2022/06/24 10:37:05;;;;;;;8.52;1.80;;;;;;;24.23;41.70;93916.22;5043771;28;20380;-92
2022/06/24 10:39:45;;;;;;;4.10;1.80;;;;;;;24.11;42.64;93913.22;5043645;28;20025;-90
2022/06/24 10:42:13;;;;;;;4.00;1.65;;;;;;;24.01;43.18;93923.75;5043680;28;20032;-90
2022/06/24 10:44:59;;;;;;;4.68;1.40;;;;;;;24.02;40.84;93910.94;5043547;28;20304;-89
2022/06/24 10:47:28;;;;;;;5.53;1.55;;;;;;;24.13;41.48;93911.63;5043761;28;20029;-89
2022/06/24 10:50:01;;;;;;;3.40;1.27;;;;;;;24.22;40.48;93917.44;5043465;28;20096;-90
2022/06/24 10:52:37;;;;;;;4.55;1.50;;;;;;;24.31;40.57;93910.75;5043146;28;20041;-89
2022/06/24 10:55:15;;;;;;;4.72;1.67;;;;;;;24.57;42.87;93920.34;5043269;28;20224;-89
2022/06/24 10:57:41;;;;;;;4.55;1.67;;;;;;;24.79;41.29;93907.28;5043132;28;20048;-89
2022/06/24 11:00:15;;;;;;;6.13;1.63;;;;;;;24.87;37.85;93892.41;5042840;28;20048;-88
2022/06/24 11:02:41;;;;;;;6.15;1.40;;;;;;;24.90;37.53;93891.63;5042995;28;20041;-89
2022/06/24 11:05:19;;;;;;;11.68;1.67;;;;;;;25.08;38.79;93898.88;5042927;28;20028;-89
2022/06/24 11:07:45;;;;;;;6.05;2.05;;;;;;;25.31;38.23;93901.75;5043010;28;20104;-89
2022/06/24 11:10:23;;;;;;;8.23;1.77;;;;;;;25.40;37.70;93899.34;5042912;28;20302;-88
2022/06/24 11:12:54;;;;;;;3.63;1.63;;;;;;;25.39;38.25;93900.50;5042787;28;20076;-88
2022/06/24 11:15:34;;;;;;;4.28;1.70;;;;;;;25.38;38.50;93898.16;5042624;28;20315;-88
2022/06/24 11:18:07;;;;;;;5.63;1.70;;;;;;;25.32;39.79;93899.78;5042706;28;20046;-88
2022/06/24 11:20:39;;;;;;;3.55;1.58;;;;;;;25.49;38.41;93889.88;5042848;28;20029;-88
2022/06/24 11:23:08;;;;;;;;;;;;;;;25.56;36.07;93900.69;5042076;28;20021;-89
2022/06/24 11:25:35;;;;;;;4.30;1.70;;;;;;;25.45;36.55;93897.34;5042923;28;19963;-88
2022/06/24 11:28:01;;;;;;;5.72;1.70;;;;;;;25.46;34.82;93887.97;5042857;28;20101;-87
2022/06/24 11:30:26;;;;;;;5.20;1.65;;;;;;;25.56;37.00;93887.06;5042722;28;20018;-88
2022/06/24 11:32:57;;;;;;;6.55;2.08;;;;;;;25.66;37.33;93886.16;5042409;28;20021;-89
2022/06/24 11:35:23;;;;;;;7.30;2.47;;;;;;;25.75;36.81;93878.25;5042709;28;20022;-88
2022/06/24 11:37:49;;;;;;;2.22;1.50;;;;;;;25.39;35.73;93884.13;5041281;28;20026;-88
2022/06/24 11:40:31;;;;;;;8.00;1.88;;;;;;;25.34;36.15;93875.63;5042288;28;20217;-88
2022/06/24 11:42:58;;;;;;;4.82;1.75;;;;;;;25.22;37.40;93879.66;5042366;28;20079;-88